createdAt,value
2022-08-12T00:03:04.220Z,20.10
2022-08-12T00:06:04.122Z,19.90
2022-08-12T00:08:53.061Z,19.90
2022-08-12T00:11:40.067Z,19.90
2022-08-12T00:17:11.823Z,19.80
2022-08-12T00:22:43.098Z,19.80
2022-08-12T00:26:05.408Z,19.80
2022-08-12T00:28:34.342Z,19.70
2022-08-12T00:31:20.273Z,19.70
2022-08-12T00:39:38.469Z,19.70
2022-08-12T00:42:11.431Z,19.80
2022-08-12T00:44:48.162Z,19.70
2022-08-12T00:49:54.639Z,19.60
2022-08-12T00:54:50.393Z,19.60
2022-08-12T00:57:19.977Z,19.60
2022-08-12T00:59:51.360Z,19.60
2022-08-12T01:02:25.770Z,19.50
2022-08-12T01:05:17.446Z,19.40
2022-08-12T01:08:04.276Z,19.40
2022-08-12T01:10:52.552Z,23.20
2022-08-12T01:13:20.730Z,19.30
2022-08-12T01:15:51.278Z,19.30
2022-08-12T01:18:21.409Z,19.30
2022-08-12T01:23:54.395Z,19.20
2022-08-12T01:26:23.621Z,19.20
2022-08-12T01:28:58.531Z,19.20
2022-08-12T01:31:29.771Z,19.10
2022-08-12T01:34:28.658Z,19.10
2022-08-12T01:36:58.506Z,19.10
2022-08-12T01:39:30.887Z,19.10
2022-08-12T01:42:07.334Z,19.10
2022-08-12T01:44:35.165Z,19.00
2022-08-12T01:47:11.150Z,19.00
2022-08-12T01:50:02.472Z,19.00
2022-08-12T01:52:41.612Z,18.90
2022-08-12T01:55:09.884Z,18.90
2022-08-12T01:57:58.299Z,19.00
2022-08-12T02:00:36.152Z,19.00
2022-08-12T02:06:36.014Z,19.00
2022-08-12T02:09:23.503Z,19.00
2022-08-12T02:12:08.542Z,19.00
2022-08-12T02:14:42.018Z,18.90
2022-08-12T02:17:55.968Z,18.90
2022-08-12T02:20:51.611Z,18.80
2022-08-12T02:25:50.148Z,18.70
2022-08-12T02:28:17.038Z,18.70
2022-08-12T02:33:12.021Z,18.60
2022-08-12T02:35:39.643Z,18.60
2022-08-12T02:38:10.710Z,18.50
2022-08-12T02:40:40.786Z,18.50
2022-08-12T02:43:19.246Z,18.50
2022-08-12T02:45:56.917Z,18.40
2022-08-12T02:48:30.220Z,18.40
2022-08-12T02:51:01.846Z,18.30
2022-08-12T02:53:30.312Z,18.40
2022-08-12T02:56:02.711Z,18.40
2022-08-12T02:58:33.206Z,18.40
2022-08-12T03:01:01.934Z,18.40
2022-08-12T03:03:34.204Z,18.40
2022-08-12T03:06:18.693Z,18.30
2022-08-12T03:08:53.602Z,18.40
2022-08-12T03:11:42.937Z,18.40
2022-08-12T03:14:18.017Z,18.40
2022-08-12T03:16:50.300Z,18.40
2022-08-12T03:19:24.700Z,18.40
2022-08-12T03:22:08.668Z,18.40
2022-08-12T03:24:39.896Z,18.30
2022-08-12T03:27:10.149Z,18.40
2022-08-12T03:29:49.809Z,18.30
2022-08-12T03:32:45.507Z,18.30
2022-08-12T03:35:07.832Z,18.30
2022-08-12T03:37:37.259Z,18.30
2022-08-12T03:40:04.931Z,18.30
2022-08-12T03:42:42.564Z,18.20
2022-08-12T03:45:52.583Z,18.10
2022-08-12T03:48:39.482Z,18.10
2022-08-12T03:51:26.323Z,18.10
2022-08-12T03:54:12.417Z,18.00
2022-08-12T03:56:58.504Z,18.00
2022-08-12T03:59:43.993Z,18.00
2022-08-12T04:02:17.386Z,18.00
2022-08-12T04:04:45.534Z,18.00
2022-08-12T04:09:44.128Z,18.00
2022-08-12T04:12:40.329Z,18.00
2022-08-12T04:15:14.499Z,18.00
2022-08-12T04:18:06.475Z,18.00
2022-08-12T04:22:56.467Z,18.10
2022-08-12T04:25:26.975Z,17.90
2022-08-12T04:27:54.868Z,18.00
2022-08-12T04:38:00.409Z,18.00
2022-08-12T04:40:30.944Z,18.00
2022-08-12T04:53:05.450Z,17.80
2022-08-12T04:55:34.586Z,17.80
2022-08-12T04:58:01.671Z,18.00
2022-08-12T05:02:56.243Z,18.00
2022-08-12T05:05:24.086Z,18.10
2022-08-12T05:07:54.524Z,18.10
2022-08-12T05:10:33.124Z,18.10
2022-08-12T05:13:05.482Z,18.10
2022-08-12T05:15:32.214Z,18.00
2022-08-12T05:18:00.236Z,18.10
2022-08-12T05:20:29.561Z,18.10
2022-08-12T05:23:13.790Z,18.30
2022-08-12T05:25:43.175Z,18.30
2022-08-12T05:28:11.203Z,18.40
2022-08-12T05:30:38.143Z,18.50
2022-08-12T05:33:06.181Z,18.50
2022-08-12T05:35:36.968Z,18.60
2022-08-12T05:38:22.718Z,18.60
2022-08-12T05:40:51.060Z,18.50
2022-08-12T05:43:18.241Z,18.70
2022-08-12T05:45:45.948Z,18.80
2022-08-12T05:50:41.388Z,19.00
2022-08-12T05:53:08.392Z,19.10
2022-08-12T05:55:36.767Z,19.20
2022-08-12T05:58:05.056Z,19.40
2022-08-12T06:00:32.831Z,19.60
2022-08-12T06:03:02.865Z,19.70
2022-08-12T06:05:34.299Z,19.90
2022-08-12T06:08:18.905Z,20.10
2022-08-12T06:13:15.188Z,21.90
2022-08-12T06:15:55.771Z,23.60
2022-08-12T06:20:57.577Z,26.60
2022-08-12T06:25:58.983Z,28.50
2022-08-12T06:28:26.459Z,29.10
2022-08-12T06:42:02.545Z,26.20
2022-08-12T06:44:33.338Z,25.30
2022-08-12T06:47:00.407Z,24.80
2022-08-12T06:49:28.394Z,24.50
2022-08-12T06:54:30.859Z,23.90
2022-08-12T06:57:05.399Z,23.80
2022-08-12T06:59:46.433Z,23.70
2022-08-12T07:02:13.765Z,23.70
2022-08-12T07:07:10.987Z,23.90
2022-08-12T07:10:00.035Z,23.90
2022-08-12T07:15:01.578Z,24.10
2022-08-12T07:17:37.277Z,24.20
2022-08-12T07:20:11.630Z,24.30
2022-08-12T07:22:58.371Z,24.40
2022-08-12T07:25:40.877Z,24.50
2022-08-12T07:28:18.315Z,24.70
2022-08-12T07:30:49.149Z,24.80
2022-08-12T07:35:48.311Z,24.90
2022-08-12T07:38:33.404Z,25.00
2022-08-12T07:41:06.183Z,25.10
2022-08-12T07:43:36.460Z,25.10
2022-08-12T07:46:08.218Z,25.20
2022-08-12T07:48:40.678Z,25.30
2022-08-12T07:51:08.366Z,25.40
2022-08-12T07:53:37.334Z,25.60
2022-08-12T07:58:46.902Z,25.90
2022-08-12T08:01:17.458Z,26.00
2022-08-12T08:04:24.663Z,26.10
2022-08-12T08:06:51.809Z,26.20
2022-08-12T08:09:21.326Z,26.10
2022-08-12T08:12:06.998Z,26.30
2022-08-12T08:17:06.534Z,26.50
2022-08-12T08:19:33.644Z,26.60
2022-08-12T08:22:24.979Z,26.70
2022-08-12T08:27:54.507Z,26.90
2022-08-12T08:32:48.745Z,27.10
2022-08-12T08:35:15.888Z,27.20
2022-08-12T08:40:33.985Z,27.20
2022-08-12T08:43:01.079Z,27.20
2022-08-12T08:47:59.632Z,27.40
2022-08-12T08:52:54.440Z,27.70
2022-08-12T08:55:29.962Z,27.70
2022-08-12T08:58:00.307Z,27.70
2022-08-12T09:02:59.150Z,27.80
2022-08-12T09:05:27.895Z,28.00
2022-08-12T09:08:12.235Z,28.10
2022-08-12T09:16:16.361Z,28.00
2022-08-12T09:18:47.928Z,27.90
2022-08-12T09:21:20.201Z,27.90
2022-08-12T09:26:29.764Z,28.20
2022-08-12T09:28:57.577Z,28.20
2022-08-12T09:32:04.311Z,28.10
2022-08-12T09:34:28.119Z,28.20
2022-08-12T09:40:03.304Z,28.20
2022-08-12T09:42:43.588Z,28.30
2022-08-12T09:47:59.044Z,28.40
2022-08-12T09:53:15.688Z,28.60
2022-08-12T09:56:06.348Z,28.70
2022-08-12T10:01:24.335Z,28.80
2022-08-12T10:12:11.288Z,28.90
2022-08-12T10:17:23.526Z,29.10
2022-08-12T10:19:52.925Z,29.10
2022-08-12T10:22:49.138Z,28.90
2022-08-12T10:26:36.164Z,29.00
2022-08-12T10:28:33.246Z,29.00
2022-08-12T10:33:30.927Z,28.90
2022-08-12T10:38:36.229Z,28.90
2022-08-12T10:46:50.103Z,29.20
2022-08-12T10:50:02.697Z,29.20
2022-08-12T10:52:33.381Z,29.00
2022-08-12T10:58:12.585Z,29.10
2022-08-12T11:00:34.135Z,29.10
2022-08-12T11:08:42.110Z,29.20
2022-08-12T11:11:13.796Z,29.40
2022-08-12T11:13:49.063Z,29.50
2022-08-12T11:16:22.288Z,29.60
2022-08-12T11:18:55.346Z,29.50
2022-08-12T11:24:30.632Z,29.30
2022-08-12T11:26:59.955Z,29.30
2022-08-12T11:30:02.630Z,29.40
2022-08-12T11:34:52.622Z,29.50
2022-08-12T11:42:47.049Z,29.40
2022-08-12T11:45:16.614Z,29.40
2022-08-12T11:52:55.394Z,29.50
2022-08-12T12:06:17.246Z,30.00
2022-08-12T12:08:52.806Z,30.00
2022-08-12T12:11:22.261Z,30.10
2022-08-12T12:14:07.733Z,30.10
2022-08-12T12:16:39.553Z,30.30
2022-08-12T12:19:08.741Z,30.20
2022-08-12T12:21:47.972Z,30.30
2022-08-12T12:24:21.220Z,30.30
2022-08-12T12:32:15.159Z,30.00
2022-08-12T12:40:16.996Z,30.40
2022-08-12T12:42:56.720Z,30.40
2022-08-12T12:45:33.267Z,30.20
2022-08-12T12:48:04.553Z,30.30
2022-08-12T12:56:34.271Z,30.60
2022-08-12T12:59:05.982Z,30.60
2022-08-12T13:06:41.184Z,30.60
2022-08-12T13:09:12.903Z,30.30
2022-08-12T13:14:29.284Z,30.20
2022-08-12T13:19:37.735Z,30.40
2022-08-12T13:22:20.420Z,30.40
2022-08-12T13:24:55.106Z,30.40
2022-08-12T13:27:28.199Z,30.40
2022-08-12T13:32:37.667Z,30.40
2022-08-12T13:35:20.204Z,30.40
2022-08-12T13:37:55.645Z,30.40
2022-08-12T13:40:28.323Z,30.50
2022-08-12T13:42:58.814Z,30.40
2022-08-12T13:45:27.095Z,30.50
2022-08-12T13:48:00.427Z,30.50
2022-08-12T13:50:36.679Z,30.60
2022-08-12T13:53:23.878Z,30.60
2022-08-12T13:58:30.312Z,30.80
2022-08-12T14:01:04.580Z,30.80
2022-08-12T14:03:50.965Z,30.70
2022-08-12T14:06:18.612Z,30.80
2022-08-12T14:08:45.495Z,30.80
2022-08-12T14:11:18.271Z,30.70
2022-08-12T14:14:05.176Z,30.70
2022-08-12T14:16:48.358Z,30.70
2022-08-12T14:22:00.442Z,30.80
2022-08-12T14:24:31.464Z,30.90
2022-08-12T14:26:58.630Z,30.90
2022-08-12T14:29:55.817Z,30.80
2022-08-12T14:32:16.809Z,30.90
2022-08-12T14:34:44.262Z,30.90
2022-08-12T14:37:13.115Z,30.90
2022-08-12T14:39:58.052Z,30.80
2022-08-12T14:42:26.107Z,30.70
2022-08-12T14:50:58.781Z,30.80
2022-08-12T14:55:24.624Z,30.80
2022-08-12T14:58:25.337Z,30.80
2022-08-12T15:01:11.416Z,30.80
2022-08-12T15:03:52.800Z,30.90
2022-08-12T15:06:43.901Z,30.90
2022-08-12T15:09:16.037Z,31.00
2022-08-12T15:11:54.925Z,31.10
2022-08-12T15:16:52.952Z,31.10
2022-08-12T15:20:31.985Z,31.00
2022-08-12T15:22:35.901Z,30.90
2022-08-12T15:24:54.095Z,30.90
2022-08-12T15:27:22.078Z,30.90
2022-08-12T15:35:00.511Z,31.00
2022-08-12T15:38:08.799Z,30.90
2022-08-12T15:42:59.650Z,31.00
2022-08-12T15:45:27.609Z,31.00
2022-08-12T15:48:04.679Z,31.00
2022-08-12T15:50:45.449Z,30.90
2022-08-12T15:53:37.588Z,30.90
2022-08-12T15:56:07.788Z,30.80
2022-08-12T15:58:41.388Z,30.70
2022-08-12T16:01:14.640Z,30.70
2022-08-12T16:03:46.399Z,30.70
2022-08-12T16:09:21.551Z,30.60
2022-08-12T16:11:48.794Z,30.60
2022-08-12T16:24:42.408Z,30.60
2022-08-12T16:27:10.303Z,30.50
2022-08-12T16:29:53.212Z,30.50
2022-08-12T16:32:24.505Z,30.40
2022-08-12T16:40:04.815Z,30.40
2022-08-12T16:42:39.424Z,30.40
2022-08-12T16:45:13.770Z,30.40
2022-08-12T16:47:58.388Z,30.40
2022-08-12T16:58:28.001Z,30.10
2022-08-12T17:01:02.018Z,30.10
2022-08-12T17:03:32.209Z,30.00
2022-08-12T17:06:03.771Z,30.00
2022-08-12T17:10:57.850Z,29.90
2022-08-12T17:16:05.004Z,29.80
2022-08-12T17:18:42.824Z,29.70
2022-08-12T17:21:15.246Z,29.70
2022-08-12T17:23:54.029Z,29.60
2022-08-12T17:26:28.138Z,29.60
2022-08-12T17:40:06.721Z,29.10
2022-08-12T17:42:32.348Z,29.00
2022-08-12T17:45:17.360Z,29.00
2022-08-12T17:48:04.843Z,28.90
2022-08-12T17:50:34.627Z,28.90
2022-08-12T17:53:02.753Z,28.80
2022-08-12T17:55:43.501Z,28.90
2022-08-12T17:58:13.094Z,28.70
2022-08-12T18:00:46.083Z,28.70
2022-08-12T18:04:04.398Z,28.60
2022-08-12T18:06:08.629Z,28.50
2022-08-12T18:08:53.526Z,28.40
2022-08-12T18:12:03.278Z,28.30
2022-08-12T18:14:29.573Z,28.00
2022-08-12T18:17:00.829Z,28.00
2022-08-12T18:19:34.163Z,27.90
2022-08-12T18:25:02.645Z,27.50
2022-08-12T18:27:43.756Z,27.50
2022-08-12T18:30:13.304Z,27.40
2022-08-12T18:32:59.041Z,27.30
2022-08-12T18:35:46.574Z,27.20
2022-08-12T18:38:19.407Z,27.10
2022-08-12T18:41:09.803Z,27.00
2022-08-12T18:43:57.393Z,26.80
2022-08-12T18:46:32.880Z,26.80
2022-08-12T18:49:18.835Z,26.80
2022-08-12T18:51:54.804Z,26.70
2022-08-12T18:54:27.403Z,26.60
2022-08-12T18:56:57.445Z,26.40
2022-08-12T19:00:01.145Z,26.30
2022-08-12T19:02:21.450Z,26.10
2022-08-12T19:04:53.386Z,26.00
2022-08-12T19:07:29.928Z,25.80
2022-08-12T19:10:13.469Z,25.60
2022-08-12T19:13:00.104Z,25.50
2022-08-12T19:15:29.903Z,27.50
2022-08-12T19:18:02.571Z,25.20
2022-08-12T19:20:30.649Z,25.00
2022-08-12T19:23:02.361Z,25.00
2022-08-12T19:25:59.260Z,24.80
2022-08-12T19:28:30.239Z,24.80
2022-08-12T19:31:44.624Z,24.80
2022-08-12T19:34:55.957Z,24.50
2022-08-12T19:37:15.361Z,24.50
2022-08-12T19:40:08.908Z,24.40
2022-08-12T19:45:04.552Z,24.30
2022-08-12T19:47:39.124Z,24.20
2022-08-12T19:50:11.058Z,24.20
2022-08-12T19:52:40.722Z,24.20
2022-08-12T19:55:11.559Z,24.10
2022-08-12T19:58:02.360Z,24.00
2022-08-12T20:00:31.394Z,23.90
2022-08-12T20:08:26.415Z,23.60
2022-08-12T20:12:14.504Z,23.50
2022-08-12T20:14:00.330Z,23.30
2022-08-12T20:16:50.739Z,23.30
2022-08-12T20:19:14.642Z,23.10
2022-08-12T20:24:12.782Z,23.10
2022-08-12T20:26:42.222Z,23.10
2022-08-12T20:29:12.218Z,23.00
2022-08-12T20:31:40.072Z,22.90
2022-08-12T20:34:08.888Z,22.80
2022-08-12T20:39:37.185Z,22.70
2022-08-12T20:42:07.280Z,22.50
2022-08-12T20:44:39.789Z,22.40
2022-08-12T20:47:19.564Z,22.30
2022-08-12T20:54:57.938Z,22.20
2022-08-12T20:57:25.191Z,22.10
2022-08-12T21:00:15.334Z,22.10
2022-08-12T21:02:50.061Z,22.00
2022-08-12T21:06:11.875Z,22.00
2022-08-12T21:08:26.405Z,21.90
2022-08-12T21:10:54.543Z,21.90
2022-08-12T21:13:29.558Z,21.90
2022-08-12T21:16:06.762Z,21.90
2022-08-12T21:18:38.033Z,21.80
2022-08-12T21:23:37.353Z,21.80
2022-08-12T21:26:11.286Z,21.70
2022-08-12T21:28:56.831Z,21.70
2022-08-12T21:32:40.854Z,21.70
2022-08-12T21:34:17.812Z,21.60
2022-08-12T21:36:48.353Z,21.60
2022-08-12T21:39:35.509Z,21.50
2022-08-12T21:42:07.040Z,21.40
2022-08-12T21:45:46.134Z,21.40
2022-08-12T21:50:03.509Z,21.30
2022-08-12T21:52:40.865Z,21.30
2022-08-12T21:55:17.693Z,21.20
2022-08-12T21:57:50.918Z,21.20
2022-08-12T22:03:07.795Z,21.10
2022-08-12T22:05:53.137Z,21.10
2022-08-12T22:08:25.387Z,21.00
2022-08-12T22:14:04.261Z,21.00
2022-08-12T22:16:13.345Z,21.00
2022-08-12T22:18:50.460Z,21.00
2022-08-12T22:21:19.673Z,21.10
2022-08-12T22:24:05.478Z,21.20
2022-08-12T22:26:37.967Z,21.20
2022-08-12T22:29:27.531Z,21.30
2022-08-12T22:31:58.117Z,21.30
2022-08-12T22:34:29.859Z,21.40
2022-08-12T22:42:12.910Z,21.30
2022-08-12T22:47:54.015Z,21.40
2022-08-12T22:50:28.538Z,21.20
2022-08-12T22:53:14.550Z,21.20
2022-08-12T22:55:58.965Z,21.20
2022-08-12T22:58:32.037Z,21.20
2022-08-12T23:01:02.199Z,21.30
2022-08-12T23:03:49.225Z,21.40
2022-08-12T23:06:25.562Z,21.30
2022-08-12T23:08:55.234Z,21.30
2022-08-12T23:13:56.054Z,21.40
2022-08-12T23:16:30.961Z,21.40
2022-08-12T23:19:10.354Z,21.40
2022-08-12T23:22:04.394Z,21.30
2022-08-12T23:30:18.601Z,21.30
2022-08-12T23:37:53.842Z,21.40
2022-08-12T23:40:24.508Z,21.30
2022-08-12T23:42:54.036Z,21.20
2022-08-12T23:45:31.612Z,21.20
2022-08-12T23:48:01.835Z,21.50
2022-08-12T23:50:33.944Z,21.50
2022-08-12T23:53:22.342Z,21.40
